TKY1905 LFOB-LPPT
Flight info
| Callsign | TKY1905 |
|---|---|
| Flight time | 2h 9m |
| Altitude | 33000 |
| Route | LGL UT176 TERPO UN872 ERIGA UZ218 FUJTI DCT BAKUP DCT BATAX DCT INBOM |
| Aircraft | A321/M-SDE3FGHIRWY/LB1 |
Departure
| Time | 2026-04-27 15:26 |
|---|---|
| Airport | Beauvais-Tillé airport (LFOB) |
Arrival
| Time | 2026-04-27 17:35 |
|---|---|
| Airport | Lisbon Humberto Delgado Airport (LPPT) |
| Time | Latitude | Longitude | Altitude | Speed | Heading |
|---|---|---|---|---|---|
| 2026-04-27 15:03 | 49.45899 | 2.11430 | 347 ft | 0 kts | 336° |
| 2026-04-27 15:19 | 49.45902 | 2.11429 | 355 ft | 1 kts | 341° |
| 2026-04-27 15:20 | 49.45917 | 2.11434 | 355 ft | 3 kts | 22° |
| 2026-04-27 15:20 | 49.45928 | 2.11471 | 357 ft | 5 kts | 92° |
| 2026-04-27 15:20 | 49.45896 | 2.11499 | 354 ft | 7 kts | 185° |
| 2026-04-27 15:20 | 49.45829 | 2.11488 | 347 ft | 12 kts | 176° |
| 2026-04-27 15:21 | 49.45756 | 2.11568 | 351 ft | 15 kts | 134° |
| 2026-04-27 15:21 | 49.45660 | 2.11573 | 352 ft | 17 kts | 212° |
| 2026-04-27 15:21 | 49.45559 | 2.11439 | 348 ft | 22 kts | 222° |
| 2026-04-27 15:21 | 49.45442 | 2.11330 | 346 ft | 16 kts | 167° |
| 2026-04-27 15:22 | 49.45366 | 2.11457 | 338 ft | 17 kts | 124° |
| 2026-04-27 15:22 | 49.45304 | 2.11602 | 336 ft | 16 kts | 123° |
| 2026-04-27 15:22 | 49.45243 | 2.11745 | 333 ft | 16 kts | 123° |
| 2026-04-27 15:22 | 49.45183 | 2.11878 | 334 ft | 14 kts | 124° |
| 2026-04-27 15:23 | 49.45125 | 2.12010 | 333 ft | 17 kts | 124° |
| 2026-04-27 15:23 | 49.45053 | 2.12181 | 331 ft | 20 kts | 117° |
| 2026-04-27 15:23 | 49.45032 | 2.12403 | 328 ft | 22 kts | 94° |
| 2026-04-27 15:23 | 49.45022 | 2.12634 | 323 ft | 22 kts | 95° |
| 2026-04-27 15:24 | 49.44962 | 2.12851 | 319 ft | 23 kts | 122° |
| 2026-04-27 15:24 | 49.44869 | 2.13062 | 314 ft | 24 kts | 123° |
| 2026-04-27 15:24 | 49.44773 | 2.13263 | 310 ft | 17 kts | 139° |
| 2026-04-27 15:24 | 49.44705 | 2.13290 | 307 ft | 16 kts | 192° |
| 2026-04-27 15:25 | 49.44650 | 2.13175 | 309 ft | 12 kts | 266° |
| 2026-04-27 15:25 | 49.44663 | 2.13077 | 311 ft | 7 kts | 297° |
| 2026-04-27 15:25 | 49.44685 | 2.13025 | 312 ft | 6 kts | 304° |
| 2026-04-27 15:25 | 49.44799 | 2.12767 | 317 ft | 68 kts | 304° |
| 2026-04-27 15:26 | 49.45201 | 2.11839 | 336 ft | 138 kts | 304° |
| 2026-04-27 15:26 | 49.45828 | 2.10363 | 482 ft | 180 kts | 305° |
| 2026-04-27 15:26 | 49.46432 | 2.08826 | 1544 ft | 166 kts | 307° |
| 2026-04-27 15:26 | 49.46930 | 2.07203 | 2381 ft | 175 kts | 287° |
| 2026-04-27 15:27 | 49.47015 | 2.05250 | 2749 ft | 191 kts | 274° |
| 2026-04-27 15:27 | 49.47029 | 2.03134 | 2996 ft | 211 kts | 273° |
| 2026-04-27 15:27 | 49.47021 | 2.00754 | 3240 ft | 235 kts | 267° |
| 2026-04-27 15:27 | 49.46364 | 1.98298 | 3522 ft | 262 kts | 228° |
| 2026-04-27 15:28 | 49.44884 | 1.96541 | 4099 ft | 274 kts | 210° |
| 2026-04-27 15:28 | 49.43181 | 1.95188 | 4809 ft | 277 kts | 205° |
| 2026-04-27 15:28 | 49.41416 | 1.93990 | 5574 ft | 280 kts | 203° |
| 2026-04-27 15:28 | 49.39627 | 1.92804 | 6385 ft | 282 kts | 205° |
| 2026-04-27 15:29 | 49.37847 | 1.91550 | 7166 ft | 282 kts | 209° |
| 2026-04-27 15:29 | 49.36128 | 1.90061 | 7872 ft | 284 kts | 212° |
| 2026-04-27 15:29 | 49.34457 | 1.88446 | 8585 ft | 285 kts | 214° |
| 2026-04-27 15:29 | 49.32796 | 1.86768 | 9321 ft | 286 kts | 216° |
| 2026-04-27 15:30 | 49.31134 | 1.85067 | 10021 ft | 288 kts | 215° |
| 2026-04-27 15:30 | 49.29453 | 1.83347 | 10522 ft | 298 kts | 215° |
| 2026-04-27 15:30 | 49.27661 | 1.81523 | 10652 ft | 319 kts | 215° |
| 2026-04-27 15:30 | 49.25753 | 1.79595 | 10775 ft | 339 kts | 214° |
| 2026-04-27 15:31 | 49.23728 | 1.77347 | 10908 ft | 357 kts | 223° |
| 2026-04-27 15:31 | 49.21940 | 1.74550 | 11037 ft | 374 kts | 232° |
| 2026-04-27 15:31 | 49.20481 | 1.71213 | 11439 ft | 380 kts | 243° |
| 2026-04-27 15:31 | 49.19236 | 1.67626 | 11989 ft | 384 kts | 243° |
| 2026-04-27 15:32 | 49.17970 | 1.64011 | 12546 ft | 387 kts | 243° |
| 2026-04-27 15:32 | 49.16690 | 1.60376 | 13104 ft | 390 kts | 243° |
| 2026-04-27 15:32 | 49.15398 | 1.56713 | 13666 ft | 393 kts | 243° |
| 2026-04-27 15:32 | 49.14099 | 1.53023 | 14186 ft | 395 kts | 243° |
| 2026-04-27 15:33 | 49.12797 | 1.49317 | 14650 ft | 398 kts | 243° |
| 2026-04-27 15:33 | 49.11484 | 1.45579 | 15103 ft | 400 kts | 243° |
| 2026-04-27 15:33 | 49.10163 | 1.41829 | 15558 ft | 402 kts | 242° |
| 2026-04-27 15:33 | 49.08831 | 1.38059 | 16013 ft | 405 kts | 243° |
| 2026-04-27 15:34 | 49.07491 | 1.34267 | 16471 ft | 407 kts | 243° |
| 2026-04-27 15:34 | 49.06144 | 1.30458 | 16921 ft | 410 kts | 242° |
| 2026-04-27 15:34 | 49.04784 | 1.26626 | 17373 ft | 412 kts | 242° |
| 2026-04-27 15:34 | 49.03416 | 1.22778 | 17815 ft | 414 kts | 242° |
| 2026-04-27 15:35 | 49.02044 | 1.18902 | 18259 ft | 417 kts | 243° |
| 2026-04-27 15:35 | 49.00681 | 1.14987 | 18675 ft | 419 kts | 243° |
| 2026-04-27 15:35 | 48.99307 | 1.10997 | 19057 ft | 421 kts | 243° |
| 2026-04-27 15:35 | 48.97945 | 1.07029 | 19427 ft | 424 kts | 243° |
| 2026-04-27 15:36 | 48.96578 | 1.03049 | 19789 ft | 426 kts | 243° |
| 2026-04-27 15:36 | 48.95198 | 0.99053 | 20156 ft | 428 kts | 243° |
| 2026-04-27 15:36 | 48.93800 | 0.95028 | 20533 ft | 431 kts | 243° |
| 2026-04-27 15:36 | 48.92398 | 0.91000 | 20876 ft | 433 kts | 243° |
| 2026-04-27 15:37 | 48.90982 | 0.86937 | 21227 ft | 435 kts | 243° |
| 2026-04-27 15:37 | 48.89561 | 0.82866 | 21591 ft | 438 kts | 243° |
| 2026-04-27 15:37 | 48.88127 | 0.78769 | 21930 ft | 440 kts | 243° |
| 2026-04-27 15:37 | 48.86686 | 0.74658 | 22286 ft | 442 kts | 243° |
| 2026-04-27 15:38 | 48.85235 | 0.70529 | 22640 ft | 444 kts | 243° |
| 2026-04-27 15:38 | 48.83755 | 0.66328 | 22989 ft | 447 kts | 243° |
| 2026-04-27 15:38 | 48.82282 | 0.62159 | 23317 ft | 449 kts | 243° |
| 2026-04-27 15:38 | 48.80805 | 0.57975 | 23640 ft | 451 kts | 243° |
| 2026-04-27 15:39 | 48.79272 | 0.53807 | 23932 ft | 454 kts | 238° |
| 2026-04-27 15:39 | 48.77372 | 0.49979 | 24222 ft | 456 kts | 231° |
| 2026-04-27 15:39 | 48.75311 | 0.46316 | 24529 ft | 457 kts | 230° |
| 2026-04-27 15:39 | 48.73250 | 0.42655 | 24840 ft | 458 kts | 230° |
| 2026-04-27 15:40 | 48.71179 | 0.38980 | 25195 ft | 457 kts | 230° |
| 2026-04-27 15:40 | 48.69122 | 0.35331 | 25671 ft | 454 kts | 230° |
| 2026-04-27 15:40 | 48.67083 | 0.31714 | 26136 ft | 450 kts | 230° |
| 2026-04-27 15:40 | 48.65032 | 0.28075 | 26620 ft | 447 kts | 230° |
| 2026-04-27 15:41 | 48.63018 | 0.24511 | 27094 ft | 444 kts | 230° |
| 2026-04-27 15:41 | 48.61018 | 0.20981 | 27555 ft | 441 kts | 230° |
| 2026-04-27 15:41 | 48.59030 | 0.17484 | 28019 ft | 438 kts | 230° |
| 2026-04-27 15:41 | 48.57056 | 0.14008 | 28485 ft | 434 kts | 230° |
| 2026-04-27 15:42 | 48.55099 | 0.10547 | 28942 ft | 431 kts | 230° |
| 2026-04-27 15:42 | 48.53165 | 0.07108 | 29389 ft | 428 kts | 230° |
| 2026-04-27 15:42 | 48.51245 | 0.03689 | 29836 ft | 425 kts | 230° |
| 2026-04-27 15:42 | 48.49341 | 0.00295 | 30269 ft | 422 kts | 230° |
| 2026-04-27 15:43 | 48.47447 | -0.03071 | 30646 ft | 420 kts | 230° |
| 2026-04-27 15:43 | 48.45560 | -0.06412 | 30977 ft | 418 kts | 230° |
| 2026-04-27 15:43 | 48.43679 | -0.09733 | 31319 ft | 416 kts | 230° |
| 2026-04-27 15:43 | 48.41798 | -0.13044 | 31651 ft | 415 kts | 230° |
| 2026-04-27 15:44 | 48.39925 | -0.16338 | 31978 ft | 414 kts | 230° |
| 2026-04-27 15:44 | 48.38056 | -0.19618 | 32287 ft | 412 kts | 230° |
| 2026-04-27 15:44 | 48.36190 | -0.22894 | 32589 ft | 411 kts | 230° |
| 2026-04-27 15:44 | 48.34308 | -0.26196 | 32904 ft | 411 kts | 230° |
| 2026-04-27 15:45 | 48.32444 | -0.29447 | 33132 ft | 411 kts | 229° |
| 2026-04-27 15:45 | 48.30567 | -0.32689 | 33185 ft | 412 kts | 229° |
| 2026-04-27 15:45 | 48.26789 | -0.39182 | 33182 ft | 413 kts | 229° |
| 2026-04-27 15:46 | 48.23007 | -0.45672 | 33177 ft | 413 kts | 229° |
| 2026-04-27 15:46 | 48.19225 | -0.52156 | 33176 ft | 413 kts | 229° |
| 2026-04-27 15:47 | 48.15441 | -0.58633 | 33167 ft | 413 kts | 229° |
| 2026-04-27 15:47 | 48.11651 | -0.65101 | 33170 ft | 413 kts | 229° |
| 2026-04-27 15:48 | 48.07831 | -0.71590 | 33170 ft | 413 kts | 229° |
| 2026-04-27 15:49 | 48.02141 | -0.81242 | 33172 ft | 412 kts | 229° |
| 2026-04-27 15:49 | 47.98344 | -0.87669 | 33173 ft | 412 kts | 229° |
| 2026-04-27 15:50 | 47.94552 | -0.94077 | 33175 ft | 412 kts | 229° |
| 2026-04-27 15:50 | 47.91397 | -0.99399 | 33176 ft | 412 kts | 229° |
| 2026-04-27 15:51 | 47.87600 | -1.05778 | 33175 ft | 412 kts | 229° |
| 2026-04-27 15:51 | 47.83796 | -1.12154 | 33172 ft | 411 kts | 229° |
| 2026-04-27 15:52 | 47.79995 | -1.18513 | 33167 ft | 411 kts | 229° |
| 2026-04-27 15:52 | 47.76190 | -1.24863 | 33168 ft | 411 kts | 229° |
| 2026-04-27 15:53 | 47.72352 | -1.31244 | 33160 ft | 411 kts | 229° |
| 2026-04-27 15:53 | 47.68543 | -1.37573 | 33164 ft | 411 kts | 228° |
| 2026-04-27 15:54 | 47.64734 | -1.43881 | 33165 ft | 410 kts | 228° |
| 2026-04-27 15:54 | 47.60920 | -1.50177 | 33165 ft | 410 kts | 228° |
| 2026-04-27 15:55 | 47.57105 | -1.56468 | 33162 ft | 410 kts | 229° |
| 2026-04-27 15:55 | 47.53300 | -1.62747 | 33161 ft | 410 kts | 229° |
| 2026-04-27 15:56 | 47.49486 | -1.69020 | 33160 ft | 410 kts | 228° |
| 2026-04-27 15:56 | 47.45670 | -1.75275 | 33157 ft | 409 kts | 228° |
| 2026-04-27 15:57 | 47.41858 | -1.81520 | 33160 ft | 409 kts | 228° |
| 2026-04-27 15:57 | 47.38041 | -1.87755 | 33165 ft | 409 kts | 228° |
| 2026-04-27 15:58 | 47.33981 | -1.93614 | 33165 ft | 410 kts | 217° |
| 2026-04-27 15:58 | 47.29125 | -1.98053 | 33165 ft | 411 kts | 213° |
| 2026-04-27 15:59 | 47.24196 | -2.02447 | 33167 ft | 411 kts | 213° |
| 2026-04-27 15:59 | 47.19311 | -2.06813 | 33162 ft | 411 kts | 213° |
| 2026-04-27 16:00 | 47.14429 | -2.11181 | 33161 ft | 411 kts | 213° |
| 2026-04-27 16:00 | 47.09548 | -2.15527 | 33157 ft | 410 kts | 213° |
| 2026-04-27 16:01 | 47.04663 | -2.19847 | 33149 ft | 410 kts | 213° |
| 2026-04-27 16:01 | 46.99782 | -2.24157 | 33149 ft | 409 kts | 213° |
| 2026-04-27 16:02 | 46.94914 | -2.28454 | 33147 ft | 408 kts | 213° |
| 2026-04-27 16:02 | 46.90048 | -2.32738 | 33148 ft | 408 kts | 213° |
| 2026-04-27 16:03 | 46.85179 | -2.37018 | 33149 ft | 409 kts | 213° |
| 2026-04-27 16:03 | 46.80304 | -2.41304 | 33153 ft | 409 kts | 213° |
| 2026-04-27 16:04 | 46.75397 | -2.45606 | 33152 ft | 409 kts | 213° |
| 2026-04-27 16:04 | 46.70520 | -2.49882 | 33151 ft | 409 kts | 213° |
| 2026-04-27 16:05 | 46.65643 | -2.54134 | 33151 ft | 409 kts | 213° |
| 2026-04-27 16:05 | 46.60762 | -2.58374 | 33152 ft | 409 kts | 213° |
| 2026-04-27 16:06 | 46.55886 | -2.62618 | 33150 ft | 408 kts | 213° |
| 2026-04-27 16:06 | 46.51009 | -2.66860 | 33153 ft | 408 kts | 213° |
| 2026-04-27 16:07 | 46.46136 | -2.71081 | 33156 ft | 408 kts | 213° |
| 2026-04-27 16:07 | 46.41220 | -2.75319 | 33154 ft | 408 kts | 213° |
| 2026-04-27 16:08 | 46.36340 | -2.79526 | 33149 ft | 408 kts | 213° |
| 2026-04-27 16:08 | 46.31456 | -2.83724 | 33152 ft | 408 kts | 213° |
| 2026-04-27 16:09 | 46.26564 | -2.87906 | 33147 ft | 408 kts | 213° |
| 2026-04-27 16:09 | 46.19267 | -2.94262 | 33147 ft | 408 kts | 214° |
| 2026-04-27 16:10 | 46.09537 | -3.02740 | 33142 ft | 409 kts | 213° |
| 2026-04-27 16:11 | 46.02218 | -3.09062 | 33143 ft | 409 kts | 213° |
| 2026-04-27 16:12 | 45.94904 | -3.15376 | 33143 ft | 409 kts | 213° |
| 2026-04-27 16:13 | 45.87579 | -3.21688 | 33139 ft | 409 kts | 213° |
| 2026-04-27 16:13 | 45.80237 | -3.27975 | 33142 ft | 410 kts | 213° |
| 2026-04-27 16:14 | 45.70434 | -3.36351 | 33138 ft | 410 kts | 213° |
| 2026-04-27 16:15 | 45.60591 | -3.44737 | 33141 ft | 411 kts | 213° |
| 2026-04-27 16:16 | 45.50765 | -3.53049 | 33146 ft | 411 kts | 213° |
| 2026-04-27 16:17 | 45.40927 | -3.61360 | 33143 ft | 411 kts | 213° |
| 2026-04-27 16:18 | 45.31061 | -3.69630 | 33135 ft | 412 kts | 213° |
| 2026-04-27 16:19 | 45.26123 | -3.73777 | 33134 ft | 412 kts | 213° |
| 2026-04-27 16:20 | 45.16234 | -3.82048 | 33128 ft | 413 kts | 212° |
| 2026-04-27 16:21 | 45.08795 | -3.88238 | 33131 ft | 413 kts | 212° |
| 2026-04-27 16:22 | 44.98863 | -3.96473 | 33136 ft | 414 kts | 212° |
| 2026-04-27 16:22 | 44.92206 | -4.01978 | 33143 ft | 415 kts | 212° |
| 2026-04-27 16:23 | 44.84727 | -4.08143 | 33139 ft | 415 kts | 212° |
| 2026-04-27 16:24 | 44.79729 | -4.12248 | 33131 ft | 416 kts | 212° |
| 2026-04-27 16:25 | 44.69719 | -4.20460 | 33123 ft | 417 kts | 212° |
| 2026-04-27 16:26 | 44.59672 | -4.28668 | 33117 ft | 418 kts | 211° |
| 2026-04-27 16:27 | 44.49578 | -4.36870 | 33115 ft | 420 kts | 211° |
| 2026-04-27 16:28 | 44.36887 | -4.47217 | 33122 ft | 422 kts | 212° |
| 2026-04-27 16:29 | 44.24344 | -4.57931 | 33115 ft | 423 kts | 212° |
| 2026-04-27 16:30 | 44.14239 | -4.66416 | 33118 ft | 425 kts | 212° |
| 2026-04-27 16:31 | 44.01564 | -4.77044 | 33116 ft | 426 kts | 212° |
| 2026-04-27 16:32 | 43.93905 | -4.83435 | 33119 ft | 427 kts | 212° |
| 2026-04-27 16:33 | 43.86264 | -4.89800 | 33120 ft | 427 kts | 212° |
| 2026-04-27 16:33 | 43.81163 | -4.94027 | 33125 ft | 428 kts | 212° |
| 2026-04-27 16:34 | 43.76051 | -4.98258 | 33124 ft | 428 kts | 212° |
| 2026-04-27 16:34 | 43.70932 | -5.02500 | 33119 ft | 429 kts | 212° |
| 2026-04-27 16:35 | 43.65801 | -5.06737 | 33117 ft | 430 kts | 212° |
| 2026-04-27 16:36 | 43.58087 | -5.13087 | 33123 ft | 431 kts | 212° |
| 2026-04-27 16:36 | 43.52928 | -5.17322 | 33124 ft | 432 kts | 212° |
| 2026-04-27 16:37 | 43.47752 | -5.21563 | 33122 ft | 433 kts | 212° |
| 2026-04-27 16:37 | 43.42573 | -5.25796 | 33119 ft | 434 kts | 212° |
| 2026-04-27 16:38 | 43.37378 | -5.30035 | 33115 ft | 434 kts | 212° |
| 2026-04-27 16:38 | 43.32179 | -5.34272 | 33112 ft | 435 kts | 212° |
| 2026-04-27 16:39 | 43.26935 | -5.38532 | 33104 ft | 435 kts | 212° |
| 2026-04-27 16:39 | 43.21713 | -5.42765 | 33106 ft | 436 kts | 212° |
| 2026-04-27 16:40 | 43.16481 | -5.46996 | 33098 ft | 437 kts | 212° |
| 2026-04-27 16:40 | 43.11241 | -5.51221 | 33100 ft | 437 kts | 212° |
| 2026-04-27 16:41 | 43.05999 | -5.55449 | 33096 ft | 438 kts | 212° |
| 2026-04-27 16:41 | 43.00755 | -5.59679 | 33095 ft | 438 kts | 212° |
| 2026-04-27 16:42 | 42.95461 | -5.63925 | 33096 ft | 438 kts | 211° |
| 2026-04-27 16:42 | 42.90205 | -5.68132 | 33094 ft | 438 kts | 212° |
| 2026-04-27 16:43 | 42.84944 | -5.72341 | 33090 ft | 438 kts | 212° |
| 2026-04-27 16:43 | 42.79678 | -5.76544 | 33089 ft | 439 kts | 211° |
| 2026-04-27 16:44 | 42.74407 | -5.80745 | 33083 ft | 439 kts | 212° |
| 2026-04-27 16:44 | 42.69133 | -5.84950 | 33090 ft | 440 kts | 211° |
| 2026-04-27 16:45 | 42.63844 | -5.89142 | 33084 ft | 440 kts | 211° |
| 2026-04-27 16:45 | 42.58546 | -5.93335 | 33080 ft | 441 kts | 211° |
| 2026-04-27 16:46 | 42.53240 | -5.97528 | 33068 ft | 442 kts | 211° |
| 2026-04-27 16:46 | 42.47929 | -6.01715 | 33060 ft | 442 kts | 211° |
| 2026-04-27 16:47 | 42.42568 | -6.05937 | 33049 ft | 442 kts | 211° |
| 2026-04-27 16:47 | 42.37236 | -6.10116 | 33045 ft | 443 kts | 211° |
| 2026-04-27 16:48 | 42.31904 | -6.14295 | 33038 ft | 443 kts | 211° |
| 2026-04-27 16:48 | 42.26566 | -6.18474 | 33035 ft | 444 kts | 211° |
| 2026-04-27 16:49 | 42.18538 | -6.24733 | 33027 ft | 444 kts | 211° |
| 2026-04-27 16:49 | 42.13185 | -6.28903 | 33024 ft | 445 kts | 211° |
| 2026-04-27 16:50 | 42.07826 | -6.33078 | 33024 ft | 445 kts | 211° |
| 2026-04-27 16:50 | 42.02458 | -6.37241 | 33021 ft | 445 kts | 211° |
| 2026-04-27 16:51 | 41.97080 | -6.41395 | 33012 ft | 446 kts | 211° |
| 2026-04-27 16:51 | 41.91701 | -6.45546 | 33009 ft | 446 kts | 211° |
| 2026-04-27 16:52 | 41.86316 | -6.49700 | 33007 ft | 447 kts | 211° |
| 2026-04-27 16:52 | 41.80923 | -6.53856 | 33000 ft | 447 kts | 211° |
| 2026-04-27 16:53 | 41.76405 | -6.57327 | 32997 ft | 447 kts | 211° |
| 2026-04-27 16:53 | 41.71009 | -6.61463 | 32993 ft | 447 kts | 212° |
| 2026-04-27 16:54 | 41.65989 | -6.66349 | 32983 ft | 446 kts | 218° |
| 2026-04-27 16:54 | 41.61021 | -6.71409 | 32981 ft | 446 kts | 218° |
| 2026-04-27 16:55 | 41.56073 | -6.76437 | 32975 ft | 447 kts | 218° |
| 2026-04-27 16:55 | 41.51131 | -6.81463 | 32977 ft | 447 kts | 218° |
| 2026-04-27 16:56 | 41.46184 | -6.86476 | 32970 ft | 447 kts | 218° |
| 2026-04-27 16:56 | 41.41232 | -6.91486 | 32971 ft | 447 kts | 218° |
| 2026-04-27 16:57 | 41.36280 | -6.96489 | 32961 ft | 447 kts | 218° |
| 2026-04-27 16:57 | 41.31326 | -7.01489 | 32956 ft | 447 kts | 218° |
| 2026-04-27 16:58 | 41.26362 | -7.06474 | 32953 ft | 447 kts | 218° |
| 2026-04-27 16:58 | 41.21398 | -7.11453 | 32947 ft | 447 kts | 218° |
| 2026-04-27 16:59 | 41.16395 | -7.16465 | 32948 ft | 447 kts | 218° |
| 2026-04-27 16:59 | 41.11426 | -7.21438 | 32951 ft | 447 kts | 218° |
| 2026-04-27 17:00 | 41.03960 | -7.28876 | 32951 ft | 448 kts | 218° |
| 2026-04-27 17:01 | 40.98980 | -7.33823 | 32947 ft | 447 kts | 218° |
| 2026-04-27 17:01 | 40.94004 | -7.38770 | 32961 ft | 448 kts | 218° |
| 2026-04-27 17:02 | 40.89021 | -7.43713 | 32964 ft | 448 kts | 218° |
| 2026-04-27 17:02 | 40.84038 | -7.48645 | 32957 ft | 448 kts | 218° |
| 2026-04-27 17:03 | 40.79050 | -7.53569 | 32957 ft | 448 kts | 217° |
| 2026-04-27 17:03 | 40.74060 | -7.58481 | 32957 ft | 447 kts | 217° |
| 2026-04-27 17:04 | 40.69071 | -7.63382 | 32951 ft | 447 kts | 217° |
| 2026-04-27 17:04 | 40.64081 | -7.68285 | 32948 ft | 447 kts | 217° |
| 2026-04-27 17:05 | 40.59094 | -7.73184 | 32950 ft | 447 kts | 217° |
| 2026-04-27 17:05 | 40.54095 | -7.78070 | 32942 ft | 447 kts | 217° |
| 2026-04-27 17:06 | 40.49101 | -7.82942 | 32944 ft | 447 kts | 217° |
| 2026-04-27 17:06 | 40.44074 | -7.87835 | 32945 ft | 447 kts | 217° |
| 2026-04-27 17:07 | 40.39082 | -7.92695 | 32945 ft | 447 kts | 217° |
| 2026-04-27 17:07 | 40.34089 | -7.97538 | 32945 ft | 446 kts | 217° |
| 2026-04-27 17:08 | 40.29097 | -8.02371 | 32947 ft | 446 kts | 217° |
| 2026-04-27 17:08 | 40.24111 | -8.07191 | 32949 ft | 445 kts | 217° |
| 2026-04-27 17:09 | 40.19099 | -8.12033 | 32643 ft | 445 kts | 217° |
| 2026-04-27 17:09 | 40.16608 | -8.14437 | 32379 ft | 445 kts | 217° |
| 2026-04-27 17:09 | 40.14120 | -8.16836 | 32114 ft | 445 kts | 217° |
| 2026-04-27 17:09 | 40.11623 | -8.19237 | 31418 ft | 448 kts | 217° |
| 2026-04-27 17:10 | 40.09099 | -8.21656 | 30588 ft | 452 kts | 217° |
| 2026-04-27 17:10 | 40.06516 | -8.24129 | 29631 ft | 456 kts | 217° |
| 2026-04-27 17:10 | 40.03917 | -8.26616 | 28839 ft | 456 kts | 216° |
| 2026-04-27 17:10 | 40.01257 | -8.28738 | 28609 ft | 437 kts | 207° |
| 2026-04-27 17:11 | 39.98491 | -8.30157 | 28146 ft | 422 kts | 197° |
| 2026-04-27 17:11 | 39.92715 | -8.31334 | 27623 ft | 420 kts | 187° |
| 2026-04-27 17:11 | 39.89817 | -8.31771 | 27363 ft | 419 kts | 187° |
| 2026-04-27 17:12 | 39.84052 | -8.32663 | 26704 ft | 415 kts | 187° |
| 2026-04-27 17:12 | 39.81232 | -8.33367 | 26409 ft | 411 kts | 200° |
| 2026-04-27 17:12 | 39.78682 | -8.34990 | 26156 ft | 409 kts | 216° |
| 2026-04-27 17:13 | 39.76426 | -8.37238 | 25914 ft | 408 kts | 219° |
| 2026-04-27 17:13 | 39.74204 | -8.39521 | 25672 ft | 407 kts | 219° |
| 2026-04-27 17:13 | 39.71987 | -8.41813 | 25427 ft | 406 kts | 219° |
| 2026-04-27 17:13 | 39.69781 | -8.44098 | 25189 ft | 405 kts | 219° |
| 2026-04-27 17:14 | 39.67578 | -8.46377 | 24951 ft | 404 kts | 219° |
| 2026-04-27 17:14 | 39.65379 | -8.48644 | 24715 ft | 403 kts | 219° |
| 2026-04-27 17:14 | 39.63184 | -8.50900 | 24479 ft | 402 kts | 219° |
| 2026-04-27 17:14 | 39.60991 | -8.53148 | 24237 ft | 401 kts | 218° |
| 2026-04-27 17:15 | 39.58772 | -8.55418 | 24008 ft | 400 kts | 218° |
| 2026-04-27 17:15 | 39.56615 | -8.57624 | 23792 ft | 400 kts | 218° |
| 2026-04-27 17:15 | 39.54407 | -8.59884 | 23559 ft | 399 kts | 218° |
| 2026-04-27 17:15 | 39.52233 | -8.62109 | 23293 ft | 398 kts | 218° |
| 2026-04-27 17:16 | 39.50062 | -8.64332 | 23031 ft | 396 kts | 218° |
| 2026-04-27 17:16 | 39.47905 | -8.66538 | 22759 ft | 395 kts | 218° |
| 2026-04-27 17:16 | 39.45752 | -8.68737 | 22497 ft | 393 kts | 218° |
| 2026-04-27 17:16 | 39.43606 | -8.70925 | 22232 ft | 392 kts | 218° |
| 2026-04-27 17:17 | 39.41465 | -8.73103 | 21975 ft | 391 kts | 218° |
| 2026-04-27 17:17 | 39.39332 | -8.75268 | 21717 ft | 389 kts | 218° |
| 2026-04-27 17:17 | 39.37209 | -8.77420 | 21460 ft | 388 kts | 218° |
| 2026-04-27 17:18 | 39.32981 | -8.81708 | 20958 ft | 385 kts | 218° |
| 2026-04-27 17:18 | 39.30876 | -8.83843 | 20707 ft | 383 kts | 218° |
| 2026-04-27 17:18 | 39.28783 | -8.85967 | 20461 ft | 382 kts | 218° |
| 2026-04-27 17:18 | 39.26698 | -8.88084 | 20215 ft | 381 kts | 218° |
| 2026-04-27 17:19 | 39.24619 | -8.90189 | 19977 ft | 379 kts | 218° |
| 2026-04-27 17:19 | 39.22548 | -8.92282 | 19732 ft | 378 kts | 217° |
| 2026-04-27 17:19 | 39.20480 | -8.94372 | 19495 ft | 377 kts | 218° |
| 2026-04-27 17:19 | 39.18421 | -8.96451 | 19253 ft | 375 kts | 217° |
| 2026-04-27 17:20 | 39.17035 | -8.97848 | 19095 ft | 374 kts | 217° |
| 2026-04-27 17:20 | 39.14985 | -8.99909 | 18837 ft | 373 kts | 216° |
| 2026-04-27 17:20 | 39.12730 | -9.01581 | 18026 ft | 379 kts | 201° |
| 2026-04-27 17:20 | 39.10304 | -9.02861 | 17645 ft | 373 kts | 202° |
| 2026-04-27 17:21 | 39.07922 | -9.04132 | 17230 ft | 369 kts | 202° |
| 2026-04-27 17:21 | 39.05559 | -9.05398 | 16771 ft | 366 kts | 202° |
| 2026-04-27 17:21 | 39.03212 | -9.06661 | 16315 ft | 364 kts | 202° |
| 2026-04-27 17:21 | 39.00883 | -9.07915 | 15862 ft | 362 kts | 202° |
| 2026-04-27 17:22 | 38.98564 | -9.09160 | 15424 ft | 360 kts | 202° |
| 2026-04-27 17:22 | 38.96262 | -9.10394 | 14999 ft | 358 kts | 202° |
| 2026-04-27 17:22 | 38.93968 | -9.11620 | 14561 ft | 356 kts | 202° |
| 2026-04-27 17:22 | 38.91687 | -9.12834 | 14147 ft | 354 kts | 202° |
| 2026-04-27 17:23 | 38.89416 | -9.14043 | 13743 ft | 352 kts | 202° |
| 2026-04-27 17:23 | 38.87159 | -9.15267 | 13144 ft | 354 kts | 205° |
| 2026-04-27 17:23 | 38.85142 | -9.17153 | 12223 ft | 368 kts | 226° |
| 2026-04-27 17:23 | 38.83409 | -9.19719 | 11907 ft | 389 kts | 229° |
| 2026-04-27 17:24 | 38.81705 | -9.22323 | 11620 ft | 369 kts | 229° |
| 2026-04-27 17:24 | 38.80120 | -9.24763 | 11374 ft | 344 kts | 229° |
| 2026-04-27 17:24 | 38.78640 | -9.27058 | 11000 ft | 324 kts | 229° |
| 2026-04-27 17:24 | 38.77243 | -9.29242 | 10615 ft | 311 kts | 229° |
| 2026-04-27 17:25 | 38.75884 | -9.31378 | 10306 ft | 307 kts | 229° |
| 2026-04-27 17:25 | 38.74519 | -9.33521 | 10069 ft | 306 kts | 229° |
| 2026-04-27 17:25 | 38.73167 | -9.35642 | 9840 ft | 306 kts | 229° |
| 2026-04-27 17:25 | 38.71826 | -9.37750 | 9526 ft | 305 kts | 229° |
| 2026-04-27 17:26 | 38.70492 | -9.39849 | 9198 ft | 303 kts | 229° |
| 2026-04-27 17:26 | 38.69164 | -9.41938 | 8860 ft | 302 kts | 229° |
| 2026-04-27 17:26 | 38.67748 | -9.43900 | 8473 ft | 297 kts | 213° |
| 2026-04-27 17:26 | 38.65917 | -9.44987 | 8100 ft | 288 kts | 187° |
| 2026-04-27 17:27 | 38.63943 | -9.45261 | 7734 ft | 284 kts | 180° |
| 2026-04-27 17:27 | 38.61970 | -9.45390 | 7368 ft | 283 kts | 179° |
| 2026-04-27 17:27 | 38.60003 | -9.45499 | 6989 ft | 282 kts | 178° |
| 2026-04-27 17:27 | 38.58046 | -9.45604 | 6648 ft | 281 kts | 179° |
| 2026-04-27 17:28 | 38.56092 | -9.45694 | 6286 ft | 279 kts | 175° |
| 2026-04-27 17:28 | 38.54243 | -9.45183 | 5908 ft | 270 kts | 149° |
| 2026-04-27 17:28 | 38.52138 | -9.41588 | 5167 ft | 257 kts | 98° |
| 2026-04-27 17:29 | 38.52168 | -9.39349 | 4785 ft | 249 kts | 75° |
| 2026-04-27 17:29 | 38.52861 | -9.37376 | 4418 ft | 242 kts | 58° |
| 2026-04-27 17:29 | 38.53730 | -9.35535 | 4067 ft | 242 kts | 58° |
| 2026-04-27 17:29 | 38.54572 | -9.33735 | 3999 ft | 229 kts | 58° |
| 2026-04-27 17:30 | 38.55349 | -9.32062 | 4003 ft | 210 kts | 58° |
| 2026-04-27 17:30 | 38.56741 | -9.29055 | 4000 ft | 185 kts | 57° |
| 2026-04-27 17:30 | 38.57395 | -9.27645 | 4005 ft | 185 kts | 58° |
| 2026-04-27 17:31 | 38.58053 | -9.26233 | 4010 ft | 185 kts | 58° |
| 2026-04-27 17:31 | 38.58711 | -9.24824 | 4010 ft | 185 kts | 57° |
| 2026-04-27 17:31 | 38.59559 | -9.23605 | 3811 ft | 183 kts | 34° |
| 2026-04-27 17:31 | 38.60694 | -9.22888 | 3602 ft | 183 kts | 22° |
| 2026-04-27 17:32 | 38.61867 | -9.22267 | 3375 ft | 182 kts | 21° |
| 2026-04-27 17:32 | 38.64239 | -9.21008 | 2904 ft | 195 kts | 21° |
| 2026-04-27 17:32 | 38.65536 | -9.20317 | 2605 ft | 204 kts | 21° |
| 2026-04-27 17:33 | 38.66839 | -9.19622 | 2329 ft | 201 kts | 20° |
| 2026-04-27 17:33 | 38.68110 | -9.18944 | 2080 ft | 192 kts | 19° |
| 2026-04-27 17:33 | 38.69285 | -9.18316 | 1821 ft | 175 kts | 20° |
| 2026-04-27 17:33 | 38.70365 | -9.17740 | 1613 ft | 163 kts | 19° |
| 2026-04-27 17:34 | 38.71386 | -9.17196 | 1406 ft | 154 kts | 19° |
| 2026-04-27 17:34 | 38.72358 | -9.16677 | 1205 ft | 147 kts | 19° |
| 2026-04-27 17:34 | 38.73272 | -9.16189 | 1051 ft | 138 kts | 18° |
| 2026-04-27 17:34 | 38.74210 | -9.15690 | 876 ft | 144 kts | 19° |
| 2026-04-27 17:35 | 38.75132 | -9.15198 | 710 ft | 147 kts | 17° |
| 2026-04-27 17:35 | 38.76099 | -9.14681 | 485 ft | 149 kts | 17° |
| 2026-04-27 17:35 | 38.77067 | -9.14171 | 362 ft | 143 kts | 21° |
| 2026-04-27 17:35 | 38.77774 | -9.13790 | 365 ft | 49 kts | 23° |
| 2026-04-27 17:36 | 38.77917 | -9.13705 | 368 ft | 20 kts | 21° |
| 2026-04-27 17:36 | 38.78039 | -9.13644 | 369 ft | 18 kts | 24° |
| 2026-04-27 17:36 | 38.78145 | -9.13582 | 369 ft | 16 kts | 25° |
| 2026-04-27 17:36 | 38.78239 | -9.13514 | 365 ft | 16 kts | 34° |
| 2026-04-27 17:37 | 38.78320 | -9.13420 | 364 ft | 16 kts | 48° |
| 2026-04-27 17:37 | 38.78369 | -9.13325 | 365 ft | 7 kts | 82° |
| 2026-04-27 17:37 | 38.78345 | -9.13276 | 366 ft | 8 kts | 152° |
| 2026-04-27 17:37 | 38.78291 | -9.13280 | 361 ft | 8 kts | 199° |
| 2026-04-27 17:38 | 38.78243 | -9.13304 | 360 ft | 7 kts | 203° |
| 2026-04-27 17:38 | 38.78197 | -9.13328 | 361 ft | 7 kts | 196° |
| 2026-04-27 17:38 | 38.78151 | -9.13353 | 361 ft | 7 kts | 204° |
| 2026-04-27 17:38 | 38.78100 | -9.13381 | 360 ft | 12 kts | 202° |
| 2026-04-27 17:39 | 38.77987 | -9.13405 | 357 ft | 22 kts | 169° |
| 2026-04-27 17:39 | 38.77872 | -9.13377 | 349 ft | 10 kts | 159° |
| 2026-04-27 17:39 | 38.77863 | -9.13293 | 341 ft | 0 kts | 78° |